createdAt,value
2017-11-07T00:01:34.898Z,46.83
2017-11-07T00:04:01.424Z,46.81
2017-11-07T00:06:27.227Z,46.53
2017-11-07T00:08:53.026Z,46.44
2017-11-07T00:11:19.024Z,46.25
2017-11-07T00:13:44.822Z,46.51
2017-11-07T00:16:10.621Z,52.54
2017-11-07T00:18:36.404Z,49.80
2017-11-07T00:21:03.076Z,48.85
2017-11-07T00:23:28.914Z,50.93
2017-11-07T00:25:54.702Z,50.04
2017-11-07T00:28:20.484Z,48.47
2017-11-07T00:30:46.460Z,46.93
2017-11-07T00:33:12.240Z,49.90
2017-11-07T00:35:38.018Z,49.66
2017-11-07T00:38:03.805Z,49.76
2017-11-07T00:40:29.616Z,52.64
2017-11-07T00:42:55.508Z,50.13
2017-11-07T00:45:21.316Z,49.46
2017-11-07T00:47:47.133Z,48.52
2017-11-07T00:50:12.925Z,48.50
2017-11-07T00:52:38.712Z,46.62
2017-11-07T00:55:04.498Z,47.35
2017-11-07T00:57:30.328Z,47.92
2017-11-07T00:59:56.111Z,46.95
2017-11-07T01:02:21.932Z,47.38
2017-11-07T01:04:47.708Z,47.11
2017-11-07T01:07:14.533Z,46.49
2017-11-07T01:09:41.370Z,46.55
2017-11-07T01:12:07.150Z,46.32
2017-11-07T01:14:34.062Z,45.80
2017-11-07T01:17:00.574Z,46.25
2017-11-07T01:19:27.154Z,46.19
2017-11-07T01:21:52.946Z,46.36
2017-11-07T01:24:18.755Z,45.98
2017-11-07T01:26:45.478Z,45.98
2017-11-07T01:29:11.269Z,46.12
2017-11-07T01:31:37.888Z,46.04
2017-11-07T01:34:03.710Z,45.77
2017-11-07T01:36:30.480Z,45.90
2017-11-07T01:38:57.209Z,45.95
2017-11-07T01:41:22.995Z,46.07
2017-11-07T01:43:49.594Z,46.13
2017-11-07T01:46:15.412Z,46.09
2017-11-07T01:48:42.053Z,46.10
2017-11-07T01:51:07.828Z,46.02
2017-11-07T01:53:34.555Z,45.70
2017-11-07T01:56:01.184Z,46.03
2017-11-07T01:58:27.996Z,45.99
2017-11-07T02:00:53.782Z,46.07
2017-11-07T02:03:20.608Z,45.97
2017-11-07T02:05:46.393Z,45.79
2017-11-07T02:08:13.372Z,45.89
2017-11-07T02:10:39.152Z,45.65
2017-11-07T02:13:05.903Z,45.85
2017-11-07T02:15:31.724Z,46.00
2017-11-07T02:17:57.516Z,45.78
2017-11-07T02:20:23.313Z,45.82
2017-11-07T02:22:49.890Z,45.82
2017-11-07T02:25:15.667Z,45.70
2017-11-07T02:27:42.415Z,45.60
2017-11-07T02:30:08.232Z,45.39
2017-11-07T02:32:34.061Z,46.18
2017-11-07T02:34:59.872Z,49.41
2017-11-07T02:37:26.568Z,49.28
2017-11-07T02:39:52.353Z,49.31
2017-11-07T02:42:18.136Z,49.65
2017-11-07T02:44:43.916Z,48.21
2017-11-07T02:47:09.689Z,46.38
2017-11-07T02:49:35.476Z,49.09
2017-11-07T02:52:01.268Z,47.51
2017-11-07T02:54:27.065Z,48.80
2017-11-07T02:56:52.868Z,49.04
2017-11-07T02:59:18.711Z,47.83
2017-11-07T03:01:44.500Z,49.73
2017-11-07T03:04:10.293Z,46.92
2017-11-07T03:06:36.089Z,46.62
2017-11-07T03:09:01.895Z,45.93
2017-11-07T03:11:27.739Z,45.95
2017-11-07T03:13:53.522Z,46.14
2017-11-07T03:16:19.318Z,45.87
2017-11-07T03:18:45.107Z,46.37
2017-11-07T03:21:10.893Z,45.79
2017-11-07T03:23:36.714Z,45.75
2017-11-07T03:26:02.520Z,45.72
2017-11-07T03:28:28.353Z,45.48
2017-11-07T03:30:54.132Z,45.51
2017-11-07T03:33:19.914Z,45.57
2017-11-07T03:35:45.716Z,45.48
2017-11-07T03:38:11.495Z,45.51
2017-11-07T03:40:37.284Z,45.48
2017-11-07T03:43:03.112Z,45.48
2017-11-07T03:45:28.896Z,45.39
2017-11-07T03:47:54.689Z,45.32
2017-11-07T03:50:20.483Z,45.14
2017-11-07T03:52:46.264Z,45.08
2017-11-07T03:55:12.100Z,45.05
2017-11-07T03:57:37.884Z,45.04
2017-11-07T04:00:03.685Z,45.17
2017-11-07T04:02:29.482Z,45.02
2017-11-07T04:04:55.260Z,45.21
2017-11-07T04:07:21.072Z,45.09
2017-11-07T04:09:46.857Z,44.76
2017-11-07T04:12:12.652Z,44.85
2017-11-07T04:14:38.721Z,44.92
2017-11-07T04:17:04.592Z,45.00
2017-11-07T04:19:30.376Z,45.04
2017-11-07T04:21:56.391Z,44.87
2017-11-07T04:24:22.192Z,45.01
2017-11-07T04:26:48.005Z,44.72
2017-11-07T04:29:13.811Z,44.79
2017-11-07T04:31:39.709Z,44.72
2017-11-07T04:34:05.503Z,44.84
2017-11-07T04:36:31.284Z,44.67
2017-11-07T04:38:57.553Z,44.77
2017-11-07T04:41:23.338Z,44.78
2017-11-07T04:43:49.229Z,44.72
2017-11-07T04:46:15.013Z,44.53
2017-11-07T04:48:40.971Z,44.55
2017-11-07T04:51:06.759Z,44.46
2017-11-07T04:53:32.616Z,44.48
2017-11-07T04:55:58.409Z,44.62
2017-11-07T04:58:24.195Z,45.00
2017-11-07T05:00:49.988Z,44.64
2017-11-07T05:03:15.776Z,44.76
2017-11-07T05:05:41.574Z,44.55
2017-11-07T05:08:07.348Z,44.70
2017-11-07T05:10:33.152Z,44.51
2017-11-07T05:12:59.063Z,44.52
2017-11-07T05:15:24.863Z,44.72
2017-11-07T05:17:50.653Z,44.62
2017-11-07T05:20:16.481Z,44.71
2017-11-07T05:22:42.275Z,44.61
2017-11-07T05:25:08.069Z,44.64
2017-11-07T05:27:33.860Z,44.47
2017-11-07T05:29:59.654Z,44.41
2017-11-07T05:32:25.610Z,44.41
2017-11-07T05:34:51.403Z,44.57
2017-11-07T05:37:17.185Z,44.62
2017-11-07T05:39:42.974Z,44.52
2017-11-07T05:42:08.766Z,44.62
2017-11-07T05:44:34.550Z,44.67
2017-11-07T05:47:00.400Z,44.56
2017-11-07T05:49:26.203Z,44.55
2017-11-07T05:51:52.004Z,44.40
2017-11-07T05:54:17.793Z,44.48
2017-11-07T05:56:43.591Z,44.41
2017-11-07T05:59:09.393Z,44.76
2017-11-07T06:01:35.193Z,44.47
2017-11-07T06:04:00.968Z,44.60
2017-11-07T06:06:26.761Z,44.50
2017-11-07T06:08:52.565Z,44.33
2017-11-07T06:11:18.352Z,44.11
2017-11-07T06:13:44.147Z,44.13
2017-11-07T06:16:09.934Z,44.15
2017-11-07T06:18:35.783Z,44.29
2017-11-07T06:21:01.726Z,44.30
2017-11-07T06:23:27.523Z,44.22
2017-11-07T06:25:54.314Z,44.08
2017-11-07T06:28:20.104Z,44.35
2017-11-07T06:30:45.904Z,44.33
2017-11-07T06:33:11.985Z,44.32
2017-11-07T06:35:37.824Z,44.28
2017-11-07T06:38:03.650Z,44.37
2017-11-07T06:40:29.440Z,44.43
2017-11-07T06:42:55.225Z,44.22
2017-11-07T06:45:21.008Z,44.31
2017-11-07T06:47:46.793Z,44.33
2017-11-07T06:50:12.586Z,44.43
2017-11-07T06:52:38.418Z,44.57
2017-11-07T06:55:04.228Z,44.67
2017-11-07T06:57:30.010Z,44.46
2017-11-07T06:59:55.806Z,44.38
2017-11-07T07:02:21.649Z,44.58
2017-11-07T07:04:47.429Z,44.80
2017-11-07T07:07:13.220Z,44.56
2017-11-07T07:09:39.009Z,44.47
2017-11-07T07:12:04.810Z,44.65
2017-11-07T07:14:30.599Z,44.53
2017-11-07T07:16:56.622Z,44.54
2017-11-07T07:19:22.415Z,44.69
2017-11-07T07:21:48.361Z,44.94
2017-11-07T07:24:14.179Z,44.81
2017-11-07T07:26:40.908Z,44.74
2017-11-07T07:29:06.710Z,44.80
2017-11-07T07:31:32.510Z,44.21
2017-11-07T07:33:58.305Z,43.95
2017-11-07T07:36:24.097Z,44.06
2017-11-07T07:38:49.896Z,44.75
2017-11-07T07:41:15.797Z,44.21
2017-11-07T07:43:41.580Z,44.02
2017-11-07T07:46:07.581Z,44.26
2017-11-07T07:48:33.796Z,44.49
2017-11-07T07:50:59.629Z,44.79
2017-11-07T07:53:25.412Z,44.54
2017-11-07T07:55:51.193Z,44.67
2017-11-07T07:58:17.022Z,44.52
2017-11-07T08:00:42.817Z,44.64
2017-11-07T08:03:08.613Z,44.87
2017-11-07T08:05:34.408Z,45.62
2017-11-07T08:08:00.236Z,45.39
2017-11-07T08:10:26.021Z,45.04
2017-11-07T08:12:51.814Z,44.98
2017-11-07T08:15:17.602Z,45.07
2017-11-07T08:17:43.629Z,45.74
2017-11-07T08:20:09.430Z,45.29
2017-11-07T08:22:35.275Z,45.39
2017-11-07T08:25:02.826Z,45.80
2017-11-07T08:27:28.640Z,45.36
2017-11-07T08:29:54.425Z,45.18
2017-11-07T08:32:21.033Z,45.48
2017-11-07T08:34:46.972Z,45.56
2017-11-07T08:37:12.771Z,45.74
2017-11-07T08:39:38.809Z,45.69
2017-11-07T08:42:04.638Z,45.73
2017-11-07T08:44:30.502Z,45.50
2017-11-07T08:46:56.285Z,46.02
2017-11-07T08:49:22.085Z,46.79
2017-11-07T08:51:47.925Z,46.19
2017-11-07T08:54:13.723Z,45.69
2017-11-07T08:56:39.524Z,45.77
2017-11-07T08:59:05.312Z,45.68
2017-11-07T09:01:31.087Z,45.43
2017-11-07T09:03:56.928Z,45.40
2017-11-07T09:06:22.705Z,47.81
2017-11-07T09:09:01.631Z,49.19
2017-11-07T09:11:27.485Z,49.07
2017-11-07T09:13:53.390Z,49.17
2017-11-07T09:16:19.185Z,47.89
2017-11-07T09:18:45.010Z,48.12
2017-11-07T09:21:10.810Z,49.23
2017-11-07T09:23:36.724Z,50.15
2017-11-07T09:26:02.526Z,48.21
2017-11-07T09:28:28.316Z,47.97
2017-11-07T09:30:55.092Z,47.56
2017-11-07T09:33:20.912Z,48.86
2017-11-07T09:35:46.708Z,46.87
2017-11-07T09:38:12.509Z,48.56
2017-11-07T09:40:38.329Z,47.71
2017-11-07T09:43:04.133Z,49.58
2017-11-07T09:45:29.962Z,48.42
2017-11-07T09:47:56.050Z,47.06
2017-11-07T09:50:21.928Z,47.04
2017-11-07T09:52:47.721Z,46.57
2017-11-07T09:55:13.526Z,46.86
2017-11-07T09:57:39.733Z,47.32
2017-11-07T10:00:05.721Z,47.51
2017-11-07T10:02:31.510Z,47.51
2017-11-07T10:04:57.386Z,47.94
2017-11-07T10:07:24.312Z,47.09
2017-11-07T10:09:50.140Z,46.60
2017-11-07T10:12:15.974Z,46.82
2017-11-07T10:14:41.774Z,47.63
2017-11-07T10:17:07.814Z,47.52
2017-11-07T10:19:33.612Z,47.96
2017-11-07T10:21:59.410Z,47.67
2017-11-07T10:24:25.201Z,46.63
2017-11-07T10:26:51.071Z,46.84
2017-11-07T10:29:16.874Z,47.67
2017-11-07T10:31:42.893Z,47.39
2017-11-07T10:34:10.400Z,48.07
2017-11-07T10:36:36.273Z,47.79
2017-11-07T10:39:02.090Z,47.37
2017-11-07T10:41:27.884Z,47.07
2017-11-07T10:43:53.681Z,47.69
2017-11-07T10:46:19.468Z,47.90
2017-11-07T10:48:45.297Z,48.26
2017-11-07T10:51:11.088Z,47.65
2017-11-07T10:53:36.953Z,48.23
2017-11-07T10:56:02.807Z,47.36
2017-11-07T10:58:28.605Z,48.26
2017-11-07T11:00:54.620Z,47.75
2017-11-07T11:03:20.449Z,47.18
2017-11-07T11:05:46.238Z,47.28
2017-11-07T11:08:12.023Z,47.95
2017-11-07T11:10:37.817Z,47.98
2017-11-07T11:13:03.649Z,48.57
2017-11-07T11:15:29.445Z,48.33
2017-11-07T11:17:55.233Z,48.56
2017-11-07T11:20:21.148Z,48.27
2017-11-07T11:22:46.943Z,48.23
2017-11-07T11:25:12.739Z,48.79
2017-11-07T11:27:38.533Z,48.21
2017-11-07T11:30:04.542Z,49.37
2017-11-07T11:32:30.504Z,48.56
2017-11-07T11:34:56.304Z,49.26
2017-11-07T11:37:22.093Z,48.32
2017-11-07T11:39:47.884Z,48.41
2017-11-07T11:42:13.834Z,48.42
2017-11-07T11:44:39.650Z,48.78
2017-11-07T11:47:06.491Z,49.84
2017-11-07T11:49:32.290Z,48.29
2017-11-07T11:51:58.105Z,48.42
2017-11-07T11:54:23.921Z,47.98
2017-11-07T11:56:49.714Z,48.57
2017-11-07T11:59:15.498Z,48.47
2017-11-07T12:01:41.300Z,48.31
2017-11-07T12:04:07.099Z,48.50
2017-11-07T12:06:32.906Z,48.10
2017-11-07T12:08:58.697Z,48.11
2017-11-07T12:11:24.497Z,47.75
2017-11-07T12:13:50.400Z,48.31
2017-11-07T12:16:16.365Z,48.09
2017-11-07T12:18:42.333Z,48.14
2017-11-07T12:21:08.283Z,48.19
2017-11-07T12:23:34.061Z,48.53
2017-11-07T12:26:04.949Z,48.41
2017-11-07T12:28:30.738Z,48.39
2017-11-07T12:30:56.536Z,48.47
2017-11-07T12:33:22.326Z,48.06
2017-11-07T12:35:48.118Z,48.11
2017-11-07T12:38:13.933Z,48.10
2017-11-07T12:40:39.821Z,49.10
2017-11-07T12:43:05.604Z,48.24
2017-11-07T12:45:31.389Z,48.46
2017-11-07T12:47:57.241Z,48.14
2017-11-07T12:50:29.306Z,48.69
2017-11-07T12:52:55.192Z,48.19
2017-11-07T12:55:20.984Z,47.94
2017-11-07T12:57:46.791Z,48.73
2017-11-07T13:00:12.565Z,47.88
2017-11-07T13:02:38.379Z,48.60
2017-11-07T13:05:04.665Z,48.35
2017-11-07T13:07:30.562Z,48.27
2017-11-07T13:09:56.641Z,48.70
2017-11-07T13:12:22.454Z,48.41
2017-11-07T13:14:48.307Z,48.71
2017-11-07T13:17:15.624Z,48.27
2017-11-07T13:19:41.616Z,48.23
2017-11-07T13:22:07.414Z,48.79
2017-11-07T13:24:33.240Z,48.95
2017-11-07T13:26:59.024Z,48.94
2017-11-07T13:29:24.806Z,48.48
2017-11-07T13:31:50.776Z,48.11
2017-11-07T13:34:16.570Z,48.51
2017-11-07T13:36:42.369Z,47.64
2017-11-07T13:39:08.157Z,47.55
2017-11-07T13:41:33.978Z,48.73
2017-11-07T13:43:59.803Z,48.20
2017-11-07T13:46:25.586Z,48.25
2017-11-07T13:48:51.461Z,48.40
2017-11-07T13:51:17.249Z,48.22
2017-11-07T13:53:43.087Z,48.84
2017-11-07T13:56:08.885Z,48.99
2017-11-07T13:58:34.725Z,48.61
2017-11-07T14:01:00.515Z,48.79
2017-11-07T14:03:26.302Z,48.91
2017-11-07T14:05:52.097Z,48.67
2017-11-07T14:08:17.896Z,48.85
2017-11-07T14:10:43.917Z,48.73
2017-11-07T14:13:09.704Z,49.48
2017-11-07T14:15:35.531Z,48.65
2017-11-07T14:18:01.323Z,48.48
2017-11-07T14:20:27.122Z,48.62
2017-11-07T14:22:52.950Z,48.47
2017-11-07T14:25:18.734Z,48.85
2017-11-07T14:27:44.584Z,49.24
2017-11-07T14:30:10.379Z,49.15
2017-11-07T14:32:36.207Z,48.87
2017-11-07T14:35:02.017Z,48.85
2017-11-07T14:37:27.841Z,48.82
2017-11-07T14:39:53.633Z,49.50
2017-11-07T14:42:19.457Z,49.34
2017-11-07T14:44:45.281Z,49.80
2017-11-07T14:47:11.161Z,49.21
2017-11-07T14:49:37.008Z,49.13
2017-11-07T14:52:02.894Z,48.64
2017-11-07T14:54:28.757Z,48.83
2017-11-07T14:56:54.557Z,48.93
2017-11-07T14:59:20.353Z,49.00
2017-11-07T15:01:46.158Z,49.16
2017-11-07T15:04:11.953Z,49.20
2017-11-07T15:06:37.739Z,48.88
2017-11-07T15:09:03.581Z,49.98
2017-11-07T15:11:29.445Z,49.02
2017-11-07T15:13:55.277Z,48.65
2017-11-07T15:16:21.167Z,49.25
2017-11-07T15:18:47.058Z,48.94
2017-11-07T15:21:12.844Z,49.08
2017-11-07T15:23:38.637Z,48.88
2017-11-07T15:26:04.445Z,49.17
2017-11-07T15:28:30.241Z,48.88
2017-11-07T15:30:56.142Z,49.66
2017-11-07T15:33:21.931Z,49.27
2017-11-07T15:35:47.757Z,49.28
2017-11-07T15:38:13.547Z,48.99
2017-11-07T15:40:39.334Z,49.05
2017-11-07T15:43:05.165Z,49.03
2017-11-07T15:45:30.968Z,49.09
2017-11-07T15:47:56.769Z,49.42
2017-11-07T15:50:22.556Z,49.28
2017-11-07T15:52:48.394Z,48.60
2017-11-07T15:55:14.192Z,48.14
2017-11-07T15:57:40.029Z,47.81
2017-11-07T16:00:05.817Z,48.38
2017-11-07T16:02:31.657Z,47.60
2017-11-07T16:04:57.457Z,47.25
2017-11-07T16:07:23.294Z,47.83
2017-11-07T16:09:49.090Z,47.17
2017-11-07T16:12:14.889Z,48.26
2017-11-07T16:14:40.693Z,47.55
2017-11-07T16:17:06.497Z,46.87
2017-11-07T16:19:32.277Z,47.08
2017-11-07T16:21:58.104Z,48.02
2017-11-07T16:24:23.904Z,47.80
2017-11-07T16:26:49.805Z,48.43
2017-11-07T16:29:15.600Z,47.29
2017-11-07T16:31:41.565Z,48.08
2017-11-07T16:34:07.354Z,48.71
2017-11-07T16:36:33.669Z,48.32
2017-11-07T16:38:59.497Z,48.19
2017-11-07T16:41:25.294Z,48.30
2017-11-07T16:43:51.151Z,47.59
2017-11-07T16:46:16.945Z,48.15
2017-11-07T16:48:42.756Z,47.77
2017-11-07T16:51:08.581Z,48.19
2017-11-07T16:53:34.372Z,48.24
2017-11-07T16:56:00.289Z,48.21
2017-11-07T16:58:26.078Z,47.78
2017-11-07T17:00:51.918Z,47.63
2017-11-07T17:03:17.802Z,48.07
2017-11-07T17:05:43.605Z,48.40
2017-11-07T17:08:09.394Z,48.44
2017-11-07T17:10:35.190Z,48.25
2017-11-07T17:13:00.982Z,48.58
2017-11-07T17:15:26.778Z,49.01
2017-11-07T17:17:52.578Z,48.38
2017-11-07T17:20:18.374Z,48.48
2017-11-07T17:22:44.182Z,48.43
2017-11-07T17:25:10.018Z,48.41
2017-11-07T17:27:35.857Z,48.49
2017-11-07T17:30:01.660Z,48.24
2017-11-07T17:32:27.458Z,48.86
2017-11-07T17:34:53.256Z,48.52
2017-11-07T17:37:19.056Z,48.71
2017-11-07T17:39:44.875Z,48.56
2017-11-07T17:42:10.706Z,48.56
2017-11-07T17:44:36.509Z,48.57
2017-11-07T17:47:02.306Z,48.21
2017-11-07T17:49:28.221Z,48.01
2017-11-07T17:51:54.019Z,48.87
2017-11-07T17:54:19.810Z,48.20
2017-11-07T17:56:45.605Z,48.02
2017-11-07T17:59:11.442Z,48.04
2017-11-07T18:01:37.412Z,47.75
2017-11-07T18:04:03.201Z,48.61
2017-11-07T18:06:28.999Z,49.13
2017-11-07T18:08:54.834Z,49.00
2017-11-07T18:11:20.660Z,48.96
2017-11-07T18:13:46.462Z,49.17
2017-11-07T18:16:12.265Z,48.73
2017-11-07T18:18:38.705Z,48.82
2017-11-07T18:21:04.509Z,49.31
2017-11-07T18:23:30.426Z,48.28
2017-11-07T18:25:56.225Z,47.56
2017-11-07T18:28:22.202Z,47.41
2017-11-07T18:30:48.016Z,46.94
2017-11-07T18:33:14.010Z,47.02
2017-11-07T18:35:39.973Z,47.17
2017-11-07T18:38:05.787Z,47.08
2017-11-07T18:40:32.751Z,47.08
2017-11-07T18:42:58.570Z,48.62
2017-11-07T18:45:24.382Z,47.94
2017-11-07T18:47:50.190Z,48.24
2017-11-07T18:50:17.153Z,48.71
2017-11-07T18:52:43.350Z,48.93
2017-11-07T18:55:09.235Z,48.66
2017-11-07T18:57:35.040Z,48.05
2017-11-07T19:00:00.848Z,48.39
2017-11-07T19:02:26.678Z,47.04
2017-11-07T19:04:52.513Z,47.32
2017-11-07T19:07:19.295Z,46.97
2017-11-07T19:09:45.191Z,46.75
2017-11-07T19:12:11.001Z,47.38
2017-11-07T19:14:37.114Z,47.20
2017-11-07T19:17:03.078Z,47.49
2017-11-07T19:19:29.001Z,47.63
2017-11-07T19:21:54.802Z,47.33
2017-11-07T19:24:20.602Z,47.35
2017-11-07T19:26:46.513Z,47.42
2017-11-07T19:29:12.392Z,47.17
2017-11-07T19:31:38.333Z,47.65
2017-11-07T19:34:05.016Z,47.59
2017-11-07T19:36:31.190Z,47.40
2017-11-07T19:38:57.084Z,47.66
2017-11-07T19:41:22.906Z,47.54
2017-11-07T19:43:48.717Z,47.75
2017-11-07T19:46:14.569Z,47.96
2017-11-07T19:48:40.434Z,47.42
2017-11-07T19:51:06.246Z,47.58
2017-11-07T19:53:32.258Z,47.74
2017-11-07T19:55:58.283Z,47.64
2017-11-07T19:58:24.087Z,47.16
2017-11-07T20:00:49.910Z,47.52
2017-11-07T20:03:15.823Z,47.07
2017-11-07T20:05:41.880Z,47.33
2017-11-07T20:08:07.829Z,47.51
2017-11-07T20:10:33.685Z,47.51
2017-11-07T20:12:59.510Z,47.00
2017-11-07T20:15:25.985Z,47.21
2017-11-07T20:17:51.883Z,47.18
2017-11-07T20:20:18.880Z,46.98
2017-11-07T20:22:44.699Z,47.36
2017-11-07T20:25:10.771Z,47.62
2017-11-07T20:27:36.877Z,46.99
2017-11-07T20:30:04.509Z,47.24
2017-11-07T20:32:30.391Z,47.50
2017-11-07T20:34:56.199Z,47.22
2017-11-07T20:37:22.046Z,47.46
2017-11-07T20:39:47.857Z,47.93
2017-11-07T20:42:13.660Z,47.88
2017-11-07T20:44:39.450Z,47.84
2017-11-07T20:47:05.304Z,48.02
2017-11-07T20:49:31.116Z,47.94
2017-11-07T20:51:56.954Z,48.05
2017-11-07T20:54:22.791Z,48.07
2017-11-07T20:56:48.633Z,47.73
2017-11-07T20:59:14.482Z,47.58
2017-11-07T21:01:40.284Z,48.11
2017-11-07T21:04:06.163Z,47.71
2017-11-07T21:06:31.999Z,47.96
2017-11-07T21:08:57.798Z,47.69
2017-11-07T21:11:23.600Z,47.45
2017-11-07T21:13:49.390Z,47.94
2017-11-07T21:16:15.190Z,47.60
2017-11-07T21:18:41.028Z,47.51
2017-11-07T21:21:06.844Z,47.57
2017-11-07T21:23:32.665Z,47.81
2017-11-07T21:25:58.459Z,47.74
2017-11-07T21:28:24.286Z,47.81
2017-11-07T21:30:50.089Z,47.76
2017-11-07T21:33:17.717Z,47.82
2017-11-07T21:35:43.562Z,47.70
2017-11-07T21:38:09.346Z,47.84
2017-11-07T21:40:35.154Z,47.64
2017-11-07T21:43:00.949Z,47.59
2017-11-07T21:45:26.861Z,48.12
2017-11-07T21:47:52.667Z,48.37
2017-11-07T21:50:18.463Z,47.88
2017-11-07T21:52:44.274Z,47.35
2017-11-07T21:55:10.143Z,47.56
2017-11-07T21:57:35.959Z,47.60
2017-11-07T22:00:01.765Z,47.91
2017-11-07T22:02:27.585Z,47.68
2017-11-07T22:04:53.377Z,47.78
2017-11-07T22:07:19.234Z,47.74
2017-11-07T22:09:45.161Z,47.97
2017-11-07T22:12:10.970Z,48.14
2017-11-07T22:14:36.762Z,47.82
2017-11-07T22:17:05.390Z,47.81
2017-11-07T22:19:31.183Z,47.85
2017-11-07T22:21:56.973Z,47.60
2017-11-07T22:24:22.796Z,47.44
2017-11-07T22:26:50.454Z,47.98
2017-11-07T22:29:16.247Z,47.96
2017-11-07T22:31:42.033Z,47.91
2017-11-07T22:34:07.831Z,47.84
2017-11-07T22:36:33.686Z,47.86
2017-11-07T22:38:59.490Z,48.00
2017-11-07T22:41:25.282Z,47.88
2017-11-07T22:43:51.076Z,48.24
2017-11-07T22:46:16.867Z,48.01
2017-11-07T22:48:42.669Z,47.90
2017-11-07T22:51:09.491Z,47.62
2017-11-07T22:53:35.273Z,47.99
2017-11-07T22:56:01.069Z,47.98
2017-11-07T22:58:26.854Z,48.07
2017-11-07T23:00:52.731Z,47.81
2017-11-07T23:03:18.527Z,47.80
2017-11-07T23:05:44.341Z,48.05
2017-11-07T23:08:10.143Z,47.52
2017-11-07T23:10:35.937Z,47.93
2017-11-07T23:13:04.763Z,47.76
2017-11-07T23:15:30.562Z,47.26
2017-11-07T23:17:56.417Z,47.54
2017-11-07T23:20:22.208Z,47.68
2017-11-07T23:22:47.999Z,47.29
2017-11-07T23:25:13.805Z,47.65
2017-11-07T23:27:39.601Z,47.64
2017-11-07T23:30:05.394Z,47.32
2017-11-07T23:32:31.188Z,47.13
2017-11-07T23:34:56.977Z,46.94
2017-11-07T23:37:22.810Z,47.66
2017-11-07T23:39:48.604Z,47.25
2017-11-07T23:42:14.397Z,48.17
2017-11-07T23:44:40.341Z,47.56
2017-11-07T23:47:06.177Z,47.95
2017-11-07T23:49:31.965Z,48.12
2017-11-07T23:51:57.756Z,47.50
2017-11-07T23:54:23.549Z,47.80
2017-11-07T23:56:49.530Z,47.46
2017-11-07T23:59:19.133Z,48.09
